Time;durP1;ratioP1;P1;durP2;ratioP2;P2;SDS_P1;SDS_P2;PMS_P1;PMS_P2;Temp;Humidity;BMP_temperature;BMP_pressure;BME280_temperature;BME280_humidity;BME280_pressure;Samples;Min_cycle;Max_cycle;Signal;HPM_P1;HPM_P2
2023/02/02 00:02:09;;;;;;;;;;;;;;;;;;;;;
2023/02/02 00:05:12;;;;;;;15.90;6.00;;;;;;;3.87;71.95;99402.10;110988;1256;21975;-79
2023/02/02 00:08:35;;;;;;;;;;;;;;;;;;;;;
2023/02/02 00:11:14;;;;;;;15.30;5.30;;;;;;;3.91;71.92;99403.88;110942;1257;22074;-80
2023/02/02 00:13:59;;;;;;;13.20;4.90;;;;;;;3.92;71.89;99403.19;111518;1253;23607;-78
2023/02/02 00:16:51;;;;;;;14.40;5.50;;;;;;;3.94;71.84;99409.85;111406;1253;22027;-79
2023/02/02 00:19:32;;;;;;;14.70;5.70;;;;;;;3.97;71.95;99409.44;111300;1248;21984;-78
2023/02/02 00:22:30;;;;;;;;;;;;;;;;;;;;;
2023/02/02 00:25:39;;;;;;;11.90;5.20;;;;;;;3.93;71.82;99412.64;111835;1247;22345;-79
2023/02/02 00:28:32;;;;;;;15.40;5.00;;;;;;;3.94;71.91;99415.71;111861;1247;21986;-79
2023/02/02 00:31:55;;;;;;;15.40;5.50;;;;;;;3.96;72.03;99418.41;111887;1247;21951;-78
2023/02/02 00:35:40;;;;;;;14.80;5.10;;;;;;;3.94;71.99;99417.94;112400;1237;22420;-79
2023/02/02 00:38:52;;;;;;;16.00;4.80;;;;;;;3.94;72.04;99418.96;113268;1236;21982;-79
2023/02/02 00:42:52;;;;;;;;;;;;;;;;;;;;;
2023/02/02 00:46:44;;;;;;;16.50;5.20;;;;;;;3.98;72.22;99415.08;111630;1251;23619;-78
2023/02/02 00:49:45;;;;;;;20.10;5.70;;;;;;;4.01;72.13;99414.84;111236;1254;23003;-80
2023/02/02 00:53:17;;;;;;;13.50;4.20;;;;;;;4.02;72.08;99407.73;111607;1254;21969;-79
2023/02/02 00:56:28;;;;;;;;;;;;;;;;;;;;;
2023/02/02 01:00:24;;;;;;;14.50;3.80;;;;;;;3.99;72.06;99407.83;111294;1254;21954;-78
2023/02/02 01:03:59;;;;;;;17.70;4.70;;;;;;;3.99;72.10;99400.42;110971;1254;21966;-78
2023/02/02 01:06:54;;;;;;;14.40;5.10;;;;;;;4.01;72.01;99398.31;111082;1254;22018;-79
2023/02/02 01:10:56;;;;;;;15.50;4.60;;;;;;;4.00;72.05;99396.27;110946;1261;22009;-79
2023/02/02 01:14:24;;;;;;;12.10;4.50;;;;;;;3.99;72.10;99393.02;109515;1273;21990;-78
2023/02/02 01:17:18;;;;;;;13.20;4.00;;;;;;;4.00;72.10;99394.89;110043;1265;23279;-78
2023/02/02 01:20:24;;;;;;;;;;;;;;;3.98;71.99;99395.12;110055;1266;22918;-81
2023/02/02 01:23:53;;;;;;;;;;;;;;;;;;;;;
2023/02/02 01:26:40;;;;;;;16.00;4.90;;;;;;;3.81;72.09;99391.41;110718;1263;21967;-80
2023/02/02 01:30:38;;;;;;;;;;;;;;;;;;;;;
2023/02/02 01:33:44;;;;;;;;;;;;;;;;;;;;;
2023/02/02 01:36:54;;;;;;;17.50;4.50;;;;;;;3.84;72.04;99386.68;111212;1255;22739;-79
2023/02/02 01:40:08;;;;;;;8.90;3.50;;;;;;;3.85;72.37;99385.48;111446;1250;21957;-79
2023/02/02 01:44:33;;;;;;;14.60;4.50;;;;;;;3.86;72.27;99382.86;111726;1250;22004;-79
2023/02/02 01:48:12;;;;;;;11.00;3.80;;;;;;;3.81;72.32;99386.42;110859;1261;21983;-79
2023/02/02 01:51:29;;;;;;;14.10;4.10;;;;;;;3.79;72.51;99383.22;110624;1257;22090;-79
2023/02/02 01:55:09;;;;;;;;;;;;;;;;;;;;;
2023/02/02 01:58:48;;;;;;;15.70;3.50;;;;;;;3.82;72.33;99379.87;110663;1261;22028;-78
2023/02/02 02:02:16;;;;;;;;;;;;;;;;;;;;;
2023/02/02 02:06:24;;;;;;;;;;;;;;;;;;;;;
2023/02/02 02:10:17;;;;;;;;;;;;;;;;;;;;;
2023/02/02 02:16:56;;;;;;;;;;;;;;;;;;;;;
2023/02/02 02:28:06;;;;;;;11.80;4.30;;;;;;;3.69;71.99;99380.89;109546;1267;22024;-78
2023/02/02 02:31:23;;;;;;;14.30;5.40;;;;;;;3.65;72.15;99376.86;110353;1263;22856;-78
2023/02/02 02:34:49;;;;;;;18.00;5.80;;;;;;;3.65;72.02;99378.41;110608;1263;22029;-78
2023/02/02 02:38:56;;;;;;;;;;;;;;;;;;;;;
2023/02/02 02:42:41;;;;;;;13.80;4.30;;;;;;;3.71;72.24;99370.33;111094;1256;22122;-80
2023/02/02 02:46:06;;;;;;;17.20;4.00;;;;;;;3.69;72.02;99371.94;110533;1265;22527;-81
2023/02/02 02:48:49;;;;;;;12.90;4.30;;;;;;;3.68;71.92;99371.28;110239;1259;22068;-80
2023/02/02 02:52:15;;;;;;;11.90;3.80;;;;;;;3.68;72.08;99371.11;110510;1265;22010;-79
2023/02/02 02:56:21;;;;;;;14.40;4.90;;;;;;;3.69;72.06;99366.05;110279;1254;22167;-78
2023/02/02 02:59:41;;;;;;;11.20;4.00;;;;;;;3.65;71.89;99358.10;111465;1251;22719;-79
2023/02/02 03:02:36;;;;;;;12.50;4.40;;;;;;;3.63;72.15;99352.47;111303;1253;24066;-78
2023/02/02 03:06:11;;;;;;;16.30;5.50;;;;;;;3.61;72.06;99355.44;111594;1253;21973;-80
2023/02/02 03:09:35;;;;;;;;;;;;;;;;;;;;;
2023/02/02 03:13:07;;;;;;;15.30;4.00;;;;;;;3.52;72.28;99337.61;111189;1255;22005;-80
2023/02/02 03:16:06;;;;;;;13.70;4.00;;;;;;;3.55;72.39;99336.86;111507;1249;21950;-78
2023/02/02 03:18:57;;;;;;;13.50;3.80;;;;;;;3.57;72.21;99331.98;111741;1249;23607;-79
2023/02/02 03:22:26;;;;;;;16.30;4.40;;;;;;;3.57;72.23;99325.63;112254;1242;23578;-81
2023/02/02 03:25:35;;;;;;;11.20;3.60;;;;;;;3.58;72.25;99320.44;112656;1242;22260;-80
2023/02/02 03:29:10;;;;;;;11.00;3.60;;;;;;;3.57;72.31;99313.23;112199;1247;21960;-82
2023/02/02 03:32:59;;;;;;;;;;;;;;;;;;;;;
2023/02/02 03:36:27;;;;;;;12.30;3.40;;;;;;;3.61;72.11;99301.41;111093;1257;21982;-79
2023/02/02 03:40:00;;;;;;;11.80;4.10;;;;;;;3.65;72.25;99292.90;111688;1248;22434;-79
2023/02/02 03:43:43;;;;;;;;;;;;;;;;;;;;;
2023/02/02 03:47:03;;;;;;;;;;;;;;;;;;;;;
2023/02/02 03:50:37;;;;;;;;;;;;;;;3.69;71.78;99274.55;111571;1251;23594;-79
2023/02/02 03:53:43;;;;;;;;;;;;;;;;;;;;;
2023/02/02 03:56:48;;;;;;;7.90;3.30;;;;;;;3.63;71.79;99270.40;112066;1247;21941;-81
2023/02/02 03:59:58;;;;;;;11.40;3.60;;;;;;;3.66;71.61;99264.29;112074;1248;21951;-81
2023/02/02 04:03:11;;;;;;;11.00;3.50;;;;;;;3.70;71.41;99253.35;112873;1234;23114;-81
2023/02/02 04:06:26;;;;;;;13.10;3.70;;;;;;;3.73;71.38;99250.70;113683;1233;21967;-81
2023/02/02 04:09:55;;;;;;;19.80;5.10;;;;;;;3.76;71.30;99248.55;113887;1232;21985;-80
2023/02/02 04:13:07;;;;;;;;;;;;;;;;;;;;;
2023/02/02 04:16:43;;;;;;;;;;;;;;;;;;;;;
2023/02/02 04:19:52;;;;;;;15.40;3.60;;;;;;;3.81;70.92;99247.86;113448;1237;21941;-80
2023/02/02 04:23:22;;;;;;;10.30;4.60;;;;;;;3.82;70.74;99247.17;113253;1237;21950;-81
2023/02/02 04:26:51;;;;;;;10.50;3.90;;;;;;;3.80;70.87;99246.17;112539;1244;21974;-81
2023/02/02 04:30:20;;;;;;;10.60;4.00;;;;;;;3.81;70.72;99242.37;111936;1248;22280;-81
2023/02/02 04:33:09;;;;;;;13.00;4.70;;;;;;;3.83;70.78;99231.64;111957;1248;23702;-79
2023/02/02 04:36:07;;;;;;;17.80;5.20;;;;;;;3.82;70.81;99233.59;112268;1244;21945;-80
2023/02/02 04:39:41;;;;;;;13.30;3.90;;;;;;;3.77;70.78;99225.11;112068;1249;22951;-78
2023/02/02 04:42:55;;;;;;;15.50;4.10;;;;;;;3.76;70.76;99226.17;111793;1249;23038;-78
2023/02/02 04:45:56;;;;;;;;;;;;;;;;;;;;;
2023/02/02 04:48:59;;;;;;;16.90;5.30;;;;;;;3.68;70.99;99230.52;111751;1249;23040;-78
2023/02/02 04:51:49;;;;;;;17.00;5.90;;;;;;;3.62;71.13;99225.70;111769;1248;23661;-79
2023/02/02 04:54:45;;;;;;;;;;;;;;;;;;;;;
2023/02/02 04:57:45;;;;;;;12.00;3.90;;;;;;;3.56;71.19;99202.80;112359;1243;23005;-77
2023/02/02 05:01:09;;;;;;;12.90;4.20;;;;;;;3.48;71.37;99199.05;112784;1238;21967;-77
2023/02/02 05:05:05;;;;;;;14.50;5.80;;;;;;;3.36;71.53;99203.35;113317;1232;21941;-77
2023/02/02 05:08:14;;;;;;;;;;;;;;;;;;;;;
2023/02/02 05:11:49;;;;;;;13.50;4.70;;;;;;;3.24;71.74;99208.32;113674;1232;21970;-79
2023/02/02 05:15:14;;;;;;;;;;;;;;;;;;;;;
2023/02/02 05:18:27;;;;;;;;;;;;;;;;;;;;;
2023/02/02 05:21:24;;;;;;;10.00;3.60;;;;;;;3.02;72.04;99203.02;113446;1225;22991;-77
2023/02/02 05:24:37;;;;;;;9.30;3.50;;;;;;;2.95;72.40;99198.40;113526;1232;22414;-78
2023/02/02 05:28:42;;;;;;;;;;;;;;;;;;;;;
2023/02/02 05:32:59;;;;;;;8.80;4.00;;;;;;;2.88;72.81;99194.95;113157;1237;21970;-79
2023/02/02 05:36:37;;;;;;;12.90;4.20;;;;;;;2.88;73.01;99188.75;112422;1246;21956;-78
2023/02/02 05:40:09;;;;;;;;;;;;;;;;;;;;;
2023/02/02 05:43:40;;;;;;;12.20;4.40;;;;;;;2.92;73.28;99192.94;111726;1251;21960;-80
2023/02/02 05:48:18;;;;;;;13.50;5.00;;;;;;;2.94;73.56;99190.48;111861;1247;22017;-79
2023/02/02 05:52:18;;;;;;;;;;;;;;;;;;;;;
2023/02/02 05:57:00;;;;;;;10.50;4.00;;;;;;;2.98;73.97;99190.25;111124;1257;22047;-79
2023/02/02 06:00:36;;;;;;;;;;;;;;;;;;;;;
2023/02/02 06:04:13;;;;;;;10.00;3.80;;;;;;;3.03;74.57;99189.77;110622;1262;23632;-79
2023/02/02 06:07:47;;;;;;;12.60;3.70;;;;;;;3.08;74.74;99190.83;111191;1251;23079;-80
2023/02/02 06:11:44;;;;;;;;;;;;;;;;;;;;;
2023/02/02 06:19:39;;;;;;;;;;;;;;;;;;;;;
2023/02/02 06:22:50;;;;;;;;;;;;;;;;;;;;;
2023/02/02 06:25:55;;;;;;;4.80;2.40;;;;;;;3.39;74.90;99211.16;109821;1268;22548;-80
2023/02/02 06:28:51;;;;;;;11.60;2.80;;;;;;;3.45;74.73;99213.09;110435;1264;23066;-79
2023/02/02 06:32:19;;;;;;;;;;;;;;;;;;;;;
2023/02/02 06:35:53;;;;;;;6.30;2.90;;;;;;;3.55;74.77;99213.83;110426;1258;22056;-79
2023/02/02 06:58:45;;;;;;;6.70;3.40;;;;;;;5.07;70.36;99239.55;110855;1259;548739;-80
2023/02/02 07:02:39;;;;;;;7.00;3.30;;;;;;;5.17;69.22;99253.90;105998;1250;7418449;-81
2023/02/02 07:05:28;;;;;;;8.60;3.40;;;;;;;4.70;70.43;99261.64;111702;1253;23050;-79
2023/02/02 07:12:51;;;;;;;;;;;;;;;;;;;;;
2023/02/02 07:16:34;;;;;;;7.80;4.00;;;;;;;4.13;72.57;99289.15;109887;1268;23455;-78
2023/02/02 07:19:50;;;;;;;9.40;3.70;;;;;;;4.11;72.59;99300.42;109959;1264;22653;-80
2023/02/02 07:23:01;;;;;;;7.50;3.70;;;;;;;4.07;72.71;99308.62;111023;1254;21965;-79
2023/02/02 07:26:58;;;;;;;;;;;;;;;;;;;;;
2023/02/02 07:30:24;;;;;;;7.70;3.80;;;;;;;3.95;73.03;99327.54;111119;1255;22566;-80
2023/02/02 07:37:03;;;;;;;5.40;2.50;;;;;;;3.91;73.54;99338.15;110751;1259;21925;-80
2023/02/02 07:40:19;;;;;;;8.70;3.50;;;;;;;3.89;73.50;99347.14;111116;1259;22443;-80
2023/02/02 07:43:12;;;;;;;;;;;;;;;;;;;;;
2023/02/02 07:46:46;;;;;;;8.50;3.50;;;;;;;3.89;73.66;99359.55;111559;1254;23614;-79
2023/02/02 07:49:44;;;;;;;8.20;3.20;;;;;;;3.88;73.73;99363.88;111458;1250;21974;-79
2023/02/02 07:53:02;;;;;;;10.50;3.90;;;;;;;3.85;73.92;99365.31;111539;1251;22000;-74
2023/02/02 07:56:25;;;;;;;6.90;3.30;;;;;;;3.99;74.35;99378.03;111743;1251;23716;-77
2023/02/02 07:59:52;;;;;;;6.70;3.20;;;;;;;4.09;74.20;99382.27;111104;1255;22979;-78
2023/02/02 08:02:40;;;;;;;5.80;3.20;;;;;;;4.06;73.65;99390.27;111072;1255;23056;-80
2023/02/02 08:05:22;;;;;;;3.80;2.40;;;;;;;3.96;73.50;99394.13;111016;1255;22066;-79
2023/02/02 08:08:04;;;;;;;7.70;3.50;;;;;;;3.91;73.46;99405.63;111449;1251;23614;-79
2023/02/02 08:10:39;;;;;;;6.10;2.10;;;;;;;3.87;73.55;99415.53;111705;1248;23701;-78
2023/02/02 08:17:22;;;;;;;;;;;;;;;;;;;;;
2023/02/02 08:21:16;;;;;;;13.30;7.20;;;;;;;3.78;73.67;99439.86;111280;1256;22234;-79
2023/02/02 08:24:28;;;;;;;5.70;3.40;;;;;;;3.80;73.55;99455.14;111459;1252;23743;-79
2023/02/02 08:27:04;;;;;;;6.00;3.10;;;;;;;3.81;73.32;99470.43;111659;1252;22144;-79
2023/02/02 08:29:41;;;;;;;7.10;3.50;;;;;;;3.84;73.27;99478.62;111272;1252;21980;-81
2023/02/02 08:32:25;;;;;;;6.10;3.30;;;;;;;3.87;73.14;99481.46;111924;1246;21950;-80
2023/02/02 08:35:29;;;;;;;6.60;3.20;;;;;;;3.87;72.98;99492.48;111463;1252;23073;-80
2023/02/02 08:38:48;;;;;;;7.10;3.10;;;;;;;3.85;72.74;99497.17;111313;1252;23584;-80
2023/02/02 08:41:56;;;;;;;4.20;2.70;;;;;;;3.86;72.79;99505.24;111563;1252;21974;-79
2023/02/02 08:44:56;;;;;;;6.10;2.80;;;;;;;3.86;72.25;99511.60;111616;1252;21979;-80
2023/02/02 08:48:36;;;;;;;4.90;2.90;;;;;;;3.86;72.16;99523.30;111788;1249;21978;-78
2023/02/02 08:51:34;;;;;;;5.10;3.00;;;;;;;3.88;72.28;99530.67;110940;1260;21951;-79
2023/02/02 08:55:17;;;;;;;;;;;;;;;;;;;;;
2023/02/02 08:58:21;;;;;;;9.30;2.80;;;;;;;3.94;71.92;99541.88;111260;1254;21978;-80
2023/02/02 09:01:39;;;;;;;10.80;3.10;;;;;;;3.99;71.93;99551.92;111435;1255;21970;-80
2023/02/02 09:04:32;;;;;;;6.70;3.10;;;;;;;4.05;71.73;99565.20;111394;1255;24156;-78
2023/02/02 09:07:19;;;;;;;4.20;3.00;;;;;;;4.08;71.63;99569.98;111496;1250;21959;-79
2023/02/02 09:10:40;;;;;;;4.00;3.10;;;;;;;4.10;71.51;99579.90;112082;1246;22174;-80
2023/02/02 09:13:50;;;;;;;;;;;;;;;;;;;;;
2023/02/02 09:16:54;;;;;;;5.30;2.20;;;;;;;4.14;70.96;99590.48;112240;1246;22008;-80
2023/02/02 09:19:56;;;;;;;7.90;3.50;;;;;;;4.10;70.62;99594.72;111708;1251;22204;-81
2023/02/02 09:22:42;;;;;;;5.00;2.90;;;;;;;4.07;70.57;99604.44;111579;1251;22216;-80
2023/02/02 09:25:30;;;;;;;8.50;3.10;;;;;;;4.07;70.58;99609.74;111445;1245;23811;-80
2023/02/02 09:28:18;;;;;;;5.80;3.00;;;;;;;4.09;70.55;99617.30;111568;1249;21953;-80
2023/02/02 09:31:23;;;;;;;3.40;2.30;;;;;;;4.11;70.40;99618.61;111447;1252;22339;-78
2023/02/02 09:34:09;;;;;;;6.70;2.70;;;;;;;4.11;70.29;99624.83;111267;1252;22979;-79
2023/02/02 09:36:51;;;;;;;5.20;2.50;;;;;;;4.12;70.40;99629.63;111683;1248;21924;-79
2023/02/02 09:39:32;;;;;;;4.80;2.20;;;;;;;4.11;70.22;99631.00;112024;1244;21953;-79
2023/02/02 09:46:01;;;;;;;4.70;3.20;;;;;;;4.03;70.18;99646.69;111114;1251;21939;-80
2023/02/02 09:48:59;;;;;;;3.80;2.50;;;;;;;4.00;70.24;99653.83;111458;1247;23684;-79
2023/02/02 09:51:43;;;;;;;4.10;2.70;;;;;;;3.97;70.25;99664.73;112216;1246;23742;-80
2023/02/02 09:54:40;;;;;;;;;;;;;;;3.99;70.22;99665.39;112088;1246;21971;-78
2023/02/02 09:57:37;;;;;;;4.70;3.00;;;;;;;3.94;70.35;99674.11;111575;1251;21817;-79
2023/02/02 10:00:44;;;;;;;7.30;2.60;;;;;;;3.95;70.45;99680.80;111212;1251;22893;-79
2023/02/02 10:03:37;;;;;;;5.10;2.70;;;;;;;3.98;70.40;99689.86;111715;1244;22010;-80
2023/02/02 10:06:27;;;;;;;6.00;2.90;;;;;;;3.98;70.14;99691.92;112204;1244;21954;-78
2023/02/02 10:09:12;;;;;;;5.00;2.70;;;;;;;3.96;69.98;99695.41;112198;1244;23494;-79
2023/02/02 10:12:03;;;;;;;5.10;2.90;;;;;;;3.95;69.97;99701.61;112271;1244;21933;-79
2023/02/02 10:14:54;;;;;;;3.50;2.40;;;;;;;3.95;70.01;99699.70;112162;1244;21959;-79
2023/02/02 10:22:22;;;;;;;4.10;2.60;;;;;;;3.93;70.23;99720.93;111757;1247;21914;-78
2023/02/02 10:24:57;;;;;;;4.80;3.00;;;;;;;3.94;70.29;99729.52;111800;1247;22305;-79
2023/02/02 10:28:16;;;;;;;6.90;3.00;;;;;;;3.99;70.23;99728.91;111734;1246;21929;-79
2023/02/02 10:31:48;;;;;;;;;;;;;;;;;;;;;
2023/02/02 10:40:14;;;;;;;8.80;5.20;;;;;;;3.93;70.46;99753.48;110483;1265;23684;-82
2023/02/02 10:46:54;;;;;;;11.70;5.50;;;;;;;4.02;70.42;99771.02;110535;1265;22013;-82
2023/02/02 10:49:40;;;;;;;9.80;6.00;;;;;;;4.02;70.11;99776.88;110815;1261;22831;-81
2023/02/02 10:52:44;;;;;;;10.20;5.70;;;;;;;4.04;70.11;99778.73;111365;1254;22024;-84
2023/02/02 10:59:30;;;;;;;8.80;4.70;;;;;;;4.10;69.94;99787.05;111732;1252;22872;-81
2023/02/02 11:02:14;;;;;;;8.50;5.70;;;;;;;4.15;69.96;99795.90;111660;1251;21969;-80
2023/02/02 11:07:44;;;;;;;5.50;2.70;;;;;;;4.24;69.47;99799.00;111149;1254;23761;-81
2023/02/02 11:10:26;;;;;;;4.30;2.30;;;;;;;4.29;69.26;99805.77;111005;1259;22009;-80
2023/02/02 11:13:00;;;;;;;3.10;2.10;;;;;;;4.33;68.98;99802.27;110973;1259;24178;-81
2023/02/02 11:15:43;;;;;;;;;;;;;;;;;;;;;
2023/02/02 11:18:54;;;;;;;;;;;;;;;;;;;;;
2023/02/02 11:21:38;;;;;;;5.50;3.60;;;;;;;4.33;68.39;99825.50;111979;1247;21953;-78
2023/02/02 11:25:00;;;;;;;;;;;;;;;;;;;;;
2023/02/02 11:28:11;;;;;;;;;;;;;;;;;;;;;
2023/02/02 11:31:36;;;;;;;7.00;3.00;;;;;;;4.39;67.81;99831.42;111994;1249;22077;-82
2023/02/02 11:35:50;;;;;;;;;;;;;;;;;;;;;
2023/02/02 11:43:14;;;;;;;;;;;;;;;;;;;;;
2023/02/02 11:47:27;;;;;;;9.20;3.70;;;;;;;4.60;66.60;99860.63;109926;1268;21794;-81
2023/02/02 11:51:25;;;;;;;;;;;;;;;;;;;;;
2023/02/02 12:05:37;;;;;;;6.90;2.90;;;;;;;4.73;66.13;99874.45;111014;1250;547989;-82
2023/02/02 12:09:31;;;;;;;5.40;3.00;;;;;;;4.73;65.72;99886.35;111626;1238;1861475;-82
2023/02/02 12:13:16;;;;;;;8.60;4.80;;;;;;;4.80;65.66;99891.90;111705;1251;21980;-80
2023/02/02 12:16:51;;;;;;;;;;;;;;;;;;;;;
2023/02/02 12:26:01;;;;;;;4.80;2.90;;;;;;;5.27;64.92;99913.28;110115;1270;21984;-84
2023/02/02 12:30:14;;;;;;;6.40;3.70;;;;;;;5.33;64.78;99920.06;109282;1277;22370;-82
2023/02/02 12:33:52;;;;;;;5.30;2.70;;;;;;;5.35;64.22;99926.41;108613;1287;21956;-85
2023/02/02 12:36:49;;;;;;;5.70;2.70;;;;;;;5.35;63.97;99927.08;108583;1287;22027;-84
2023/02/02 12:40:57;;;;;;;;;;;;;;;;;;;;;
2023/02/02 13:01:24;;;;;;;;;;;;;;;;;;;;;
2023/02/02 13:05:58;;;;;;;;;;;;;;;;;;;;;
2023/02/02 13:09:42;;;;;;;4.20;2.90;;;;;;;5.53;59.08;99957.38;110750;1262;21987;-84
2023/02/02 13:13:31;;;;;;;6.90;4.00;;;;;;;5.44;59.17;99964.84;110604;1262;21973;-85
2023/02/02 13:16:25;;;;;;;;;;;;;;;5.23;58.78;99978.23;109364;1273;22011;-85
2023/02/02 13:20:05;;;;;;;6.20;2.20;;;;;;;4.96;58.78;99978.46;109326;1273;21982;-80
2023/02/02 13:23:33;;;;;;;5.00;2.00;;;;;;;4.80;58.98;99988.09;109019;1279;22892;-83
2023/02/02 13:26:56;;;;;;;;;;;;;;;;;;;;;
2023/02/02 13:30:24;;;;;;;5.80;2.20;;;;;;;4.70;59.42;99992.96;109100;1274;22407;-80
2023/02/02 13:33:41;;;;;;;5.10;2.10;;;;;;;4.67;59.50;99998.52;109200;1274;21973;-80
2023/02/02 13:37:03;;;;;;;;;;;;;;;;;;;;;
2023/02/02 13:40:43;;;;;;;5.20;3.30;;;;;;;4.55;59.64;100013.92;110239;1266;22007;-80
2023/02/02 13:44:51;;;;;;;7.00;2.70;;;;;;;4.47;59.67;100019.40;109756;1271;22019;-80
2023/02/02 13:47:54;;;;;;;3.30;2.20;;;;;;;4.46;59.87;100026.84;109307;1275;23030;-81
2023/02/02 13:50:41;;;;;;;3.10;1.60;;;;;;;4.50;59.53;100034.88;109274;1269;23655;-82
2023/02/02 13:54:14;;;;;;;4.00;2.00;;;;;;;4.43;59.13;100041.36;110048;1265;21995;-82
2023/02/02 13:57:43;;;;;;;7.50;1.90;;;;;;;4.34;59.39;100052.20;109739;1270;21982;-81
2023/02/02 14:00:50;;;;;;;;;;;;;;;;;;;;;
2023/02/02 14:04:00;;;;;;;5.90;3.50;;;;;;;4.32;59.63;100059.30;109680;1270;22061;-82
2023/02/02 14:07:19;;;;;;;5.00;3.00;;;;;;;4.28;59.65;100068.84;109172;1276;21987;-81
2023/02/02 14:09:50;;;;;;;6.70;3.90;;;;;;;4.23;59.95;100072.02;108883;1280;22013;-80
2023/02/02 14:12:29;;;;;;;8.00;5.00;;;;;;;4.25;60.18;100077.48;108960;1272;21997;-81
2023/02/02 14:14:57;;;;;;;9.50;5.60;;;;;;;4.28;60.25;100083.48;109666;1265;22082;-81
2023/02/02 14:17:25;;;;;;;5.80;4.10;;;;;;;4.29;60.16;100088.80;110231;1265;22157;-81
2023/02/02 14:20:04;;;;;;;6.10;3.50;;;;;;;4.30;60.39;100089.65;110469;1266;23804;-80
2023/02/02 14:23:44;;;;;;;6.80;3.60;;;;;;;4.29;60.52;100093.11;110898;1254;23037;-81
2023/02/02 14:27:01;;;;;;;4.10;2.80;;;;;;;4.23;60.62;100104.41;109605;1271;23468;-81
2023/02/02 14:29:59;;;;;;;5.40;3.20;;;;;;;4.18;60.73;100109.83;109679;1268;21965;-81
2023/02/02 14:32:45;;;;;;;5.90;3.20;;;;;;;4.15;60.74;100115.03;110027;1268;23144;-82
2023/02/02 14:35:47;;;;;;;6.90;5.30;;;;;;;4.13;60.77;100122.11;109743;1268;22707;-81
2023/02/02 14:39:29;;;;;;;5.40;3.50;;;;;;;4.10;61.06;100125.80;110092;1268;22010;-81
2023/02/02 14:45:23;;;;;;;10.30;5.20;;;;;;;4.03;61.30;100137.94;111336;1254;23945;-81
2023/02/02 14:48:05;;;;;;;6.90;4.90;;;;;;;4.00;61.36;100140.23;111375;1255;22118;-82
2023/02/02 14:50:59;;;;;;;7.10;4.40;;;;;;;3.99;61.53;100147.82;111515;1255;22011;-79
2023/02/02 14:53:46;;;;;;;10.80;5.90;;;;;;;3.96;61.60;100150.95;111404;1251;21971;-80
2023/02/02 14:56:57;;;;;;;5.20;3.70;;;;;;;3.92;61.61;100163.75;110924;1259;21986;-80
2023/02/02 14:59:47;;;;;;;6.20;4.30;;;;;;;3.87;61.76;100169.66;110865;1262;22052;-81
2023/02/02 15:02:32;;;;;;;7.90;3.80;;;;;;;3.83;62.09;100177.63;110827;1253;21996;-81
2023/02/02 15:06:03;;;;;;;6.30;3.90;;;;;;;3.76;62.09;100182.89;111836;1246;21957;-80
2023/02/02 15:09:40;;;;;;;6.70;3.90;;;;;;;3.67;62.49;100191.61;111620;1252;23737;-81
2023/02/02 15:12:45;;;;;;;7.40;4.10;;;;;;;3.60;62.91;100200.30;111226;1257;24032;-81
2023/02/02 15:15:33;;;;;;;6.00;3.60;;;;;;;3.60;63.01;100203.73;111341;1254;21995;-83
2023/02/02 15:18:35;;;;;;;6.80;3.60;;;;;;;3.59;63.11;100211.32;111677;1249;21963;-80
2023/02/02 15:21:20;;;;;;;8.90;4.10;;;;;;;3.55;63.23;100217.39;111776;1249;22835;-82
2023/02/02 15:24:05;;;;;;;12.80;5.50;;;;;;;3.54;63.35;100225.48;111731;1249;21984;-86
2023/02/02 15:27:07;;;;;;;8.50;5.20;;;;;;;3.52;63.46;100233.06;111920;1249;22034;-84
2023/02/02 15:29:44;;;;;;;6.40;4.60;;;;;;;3.51;63.59;100238.25;111738;1249;23008;-82
2023/02/02 15:32:24;;;;;;;8.70;4.90;;;;;;;3.49;63.66;100241.70;111912;1249;22433;-84
2023/02/02 15:35:22;;;;;;;10.50;5.50;;;;;;;3.48;63.74;100248.77;111804;1249;22248;-82
2023/02/02 15:38:03;;;;;;;7.90;4.80;;;;;;;3.46;63.92;100258.77;111533;1252;23005;-82
2023/02/02 15:40:37;;;;;;;9.60;4.20;;;;;;;3.43;63.98;100263.64;111587;1252;22462;-83
2023/02/02 15:43:12;;;;;;;7.10;4.70;;;;;;;3.41;63.94;100270.52;111523;1252;22626;-83
2023/02/02 15:46:23;;;;;;;;;;;;;;;;;;;;;
2023/02/02 15:49:27;;;;;;;8.40;4.50;;;;;;;3.39;64.09;100288.27;112004;1245;22023;-82
2023/02/02 15:52:34;;;;;;;;;;;;;;;3.38;64.16;100296.02;112528;1240;21955;-81
2023/02/02 15:55:37;;;;;;;8.40;4.50;;;;;;;3.30;64.44;100300.90;112300;1242;23011;-82
2023/02/02 15:58:32;;;;;;;9.20;4.60;;;;;;;3.29;64.46;100308.14;112759;1241;23795;-82
2023/02/02 16:01:50;;;;;;;7.60;3.90;;;;;;;3.28;64.44;100315.20;112782;1241;24531;-84
2023/02/02 16:04:36;;;;;;;5.70;3.90;;;;;;;3.30;64.46;100327.91;112790;1241;21946;-84
2023/02/02 16:07:46;;;;;;;6.30;3.70;;;;;;;3.32;64.35;100339.41;112574;1241;21957;-86
2023/02/02 16:10:52;;;;;;;7.00;3.60;;;;;;;3.31;64.26;100353.36;112975;1241;22980;-85
2023/02/02 16:13:31;;;;;;;7.30;3.90;;;;;;;3.30;64.24;100362.98;112849;1241;21963;-84
2023/02/02 16:16:21;;;;;;;;;;;;;;;3.31;64.22;100374.68;112920;1241;22820;-82
2023/02/02 16:19:29;;;;;;;6.10;3.70;;;;;;;3.19;64.34;100387.15;113219;1237;21971;-84
2023/02/02 16:22:14;;;;;;;6.90;3.40;;;;;;;3.10;64.48;100395.30;113308;1236;21950;-85
2023/02/02 16:25:01;;;;;;;7.00;4.00;;;;;;;3.01;64.73;100404.81;113358;1236;21955;-86
2023/02/02 16:27:36;;;;;;;8.70;3.90;;;;;;;2.96;65.07;100409.81;112894;1242;21947;-88
2023/02/02 16:30:47;;;;;;;8.60;4.60;;;;;;;2.93;65.26;100411.20;112767;1241;21991;-88
2023/02/02 16:33:36;;;;;;;6.50;4.20;;;;;;;2.87;65.59;100423.27;113039;1242;22079;-84
2023/02/02 16:37:06;;;;;;;;;;;;;;;2.85;65.96;100426.04;113355;1241;22018;-88
2023/02/02 16:39:55;;;;;;;7.40;4.20;;;;;;;2.72;66.30;100436.59;111894;1253;22223;-88
2023/02/02 16:42:45;;;;;;;5.90;3.90;;;;;;;2.70;66.62;100441.92;111902;1249;21981;-84
2023/02/02 16:45:48;;;;;;;5.00;3.00;;;;;;;2.74;66.68;100451.36;112131;1244;21945;-86
2023/02/02 16:48:36;;;;;;;4.70;3.20;;;;;;;2.75;66.76;100455.81;112402;1244;21998;-87
2023/02/02 16:51:36;;;;;;;6.70;3.80;;;;;;;2.71;66.97;100463.91;112426;1244;24389;-88
2023/02/02 16:55:34;;;;;;;8.20;4.00;;;;;;;2.68;67.13;100475.43;111955;1250;22008;-88
2023/02/02 16:58:56;;;;;;;7.70;3.50;;;;;;;2.64;67.32;100483.52;111716;1252;23028;-84
2023/02/02 17:01:41;;;;;;;86.50;78.00;;;;;;;2.65;67.56;100493.65;111495;1253;23728;-82
2023/02/02 17:04:42;;;;;;;7.20;4.30;;;;;;;2.73;67.65;100497.40;111543;1252;22739;-87
2023/02/02 17:08:12;;;;;;;;;;;;;;;;;;;;;
2023/02/02 17:12:38;;;;;;;11.90;6.00;;;;;;;2.67;67.54;100517.36;111197;1263;22014;-88
2023/02/02 17:15:17;;;;;;;10.40;6.30;;;;;;;2.64;67.53;100529.05;111106;1263;22003;-91
2023/02/02 17:17:55;;;;;;;9.10;5.70;;;;;;;2.65;67.73;100535.75;111195;1262;21990;-85
2023/02/02 17:20:45;;;;;;;12.90;7.20;;;;;;;2.65;68.00;100542.63;110340;1263;22011;-85
2023/02/02 17:23:20;;;;;;;12.90;6.60;;;;;;;2.62;67.88;100549.51;110425;1263;23130;-87
2023/02/02 17:25:56;;;;;;;11.50;6.50;;;;;;;2.57;67.86;100558.80;110618;1260;21976;-84
2023/02/02 17:28:36;;;;;;;8.30;5.30;;;;;;;2.51;67.86;100564.99;111103;1260;22995;-87
2023/02/02 17:31:14;;;;;;;8.70;5.40;;;;;;;2.46;67.96;100571.88;111507;1248;22006;-85
2023/02/02 17:33:47;;;;;;;9.10;5.20;;;;;;;2.40;68.01;100586.13;112304;1242;22014;-87
2023/02/02 17:36:21;;;;;;;10.40;5.80;;;;;;;2.36;68.15;100586.81;112669;1242;21963;-86
2023/02/02 17:39:03;;;;;;;11.70;7.10;;;;;;;2.35;68.28;100588.19;112819;1237;21965;-88
2023/02/02 17:41:38;;;;;;;9.60;6.20;;;;;;;2.36;68.38;100593.17;113410;1236;21960;-86
2023/02/02 17:45:16;;;;;;;10.80;6.10;;;;;;;2.32;68.47;100604.51;113239;1237;22696;-89
2023/02/02 17:48:29;;;;;;;17.60;14.00;;;;;;;2.23;68.76;100610.34;112918;1242;21929;-89
2023/02/02 17:51:05;;;;;;;9.60;6.40;;;;;;;2.27;68.89;100621.50;112483;1242;23584;-87
2023/02/02 17:53:48;;;;;;;;;;;;;;;;;;;;;
2023/02/02 17:56:21;;;;;;;10.10;6.20;;;;;;;2.24;68.62;100630.95;112534;1242;22185;-82
2023/02/02 17:58:55;;;;;;;10.70;6.40;;;;;;;2.22;68.79;100632.32;112378;1242;23622;-86
2023/02/02 18:01:29;;;;;;;17.70;8.30;;;;;;;2.21;68.75;100634.20;112754;1242;21966;-89
2023/02/02 18:04:17;;;;;;;13.00;8.00;;;;;;;2.20;68.79;100642.98;112641;1242;22185;-86
2023/02/02 18:06:50;;;;;;;13.60;8.70;;;;;;;2.18;68.74;100649.67;112601;1242;21948;-86
2023/02/02 18:09:25;;;;;;;14.90;7.80;;;;;;;2.19;68.92;100656.70;112246;1242;23746;-86
2023/02/02 18:12:00;;;;;;;15.10;7.30;;;;;;;2.21;68.88;100662.89;112683;1243;22044;-92
2023/02/02 18:14:36;;;;;;;13.40;7.80;;;;;;;2.23;68.93;100667.18;113659;1236;22153;-89
2023/02/02 18:17:13;;;;;;;12.80;7.00;;;;;;;2.25;68.94;100670.98;113665;1237;22165;-90
2023/02/02 18:20:36;;;;;;;12.40;6.40;;;;;;;2.21;69.02;100676.80;114460;1234;22227;-90
2023/02/02 18:23:08;;;;;;;16.70;7.80;;;;;;;2.22;69.04;100683.50;113999;1234;21990;-85